Time;durP1;ratioP1;P1;durP2;ratioP2;P2;SDS_P1;SDS_P2;PMS_P1;PMS_P2;Temp;Humidity;BMP_temperature;BMP_pressure;BME280_temperature;BME280_humidity;BME280_pressure;Samples;Min_cycle;Max_cycle;Signal;HPM_P1;HPM_P2
2021/05/11 00:00:38;;;;;;;3.42;2.58;;;;;;;20.65;29.93;100366.22;5000816;28;99182;-72
2021/05/11 00:03:05;;;;;;;2.67;2.47;;;;;;;20.63;29.64;100373.53;4999018;28;99025;-72
2021/05/11 00:05:33;;;;;;;2.65;2.47;;;;;;;20.59;29.54;100363.72;5000512;28;98200;-72
2021/05/11 00:08:01;;;;;;;4.93;2.60;;;;;;;20.55;29.76;100365.63;5000750;28;97187;-72
2021/05/11 00:10:29;;;;;;;3.42;2.95;;;;;;;20.52;30.08;100359.38;4997899;28;98966;-73
2021/05/11 00:13:00;;;;;;;3.15;2.50;;;;;;;20.48;30.11;100361.28;5001913;28;97758;-72
2021/05/11 00:15:27;;;;;;;3.03;2.70;;;;;;;20.45;29.94;100366.72;5000927;28;96884;-72
2021/05/11 00:17:54;;;;;;;3.00;2.70;;;;;;;20.41;29.77;100366.88;5000539;28;96912;-72
2021/05/11 00:20:22;;;;;;;2.47;2.35;;;;;;;20.36;30.23;100357.97;5000206;28;97961;-71
2021/05/11 00:22:49;;;;;;;4.13;2.53;;;;;;;20.31;30.00;100360.81;5005091;28;98381;-72
2021/05/11 00:25:18;;;;;;;2.78;2.53;;;;;;;20.30;30.36;100358.16;5007312;28;97739;-72
2021/05/11 00:27:44;;;;;;;2.50;2.40;;;;;;;20.28;30.28;100365.41;5007476;28;96891;-72
2021/05/11 00:30:12;;;;;;;2.70;2.50;;;;;;;20.26;29.92;100368.16;5004655;28;98168;-72
2021/05/11 00:32:40;;;;;;;5.43;2.55;;;;;;;20.27;29.94;100364.50;5005562;28;97652;-72
2021/05/11 00:35:08;;;;;;;4.72;2.63;;;;;;;20.25;30.27;100357.38;5004636;28;96944;-72
2021/05/11 00:37:36;;;;;;;2.85;2.33;;;;;;;20.19;30.04;100360.22;5003095;28;96825;-72
2021/05/11 00:40:05;;;;;;;2.75;2.15;;;;;;;20.18;30.36;100359.34;5003798;28;100313;-73
2021/05/11 00:42:33;;;;;;;3.20;2.50;;;;;;;20.15;30.40;100353.13;5003960;28;98162;-72
2021/05/11 00:45:01;;;;;;;3.28;2.58;;;;;;;20.13;30.30;100352.28;5006118;28;97288;-71
2021/05/11 00:47:29;;;;;;;4.30;2.35;;;;;;;20.10;30.19;100339.75;5002785;28;99437;-71
2021/05/11 00:49:56;;;;;;;4.90;2.90;;;;;;;20.09;29.96;100335.25;5004864;28;97893;-72
2021/05/11 00:52:23;;;;;;;5.82;2.72;;;;;;;20.07;30.45;100329.00;5004979;28;99150;-72
2021/05/11 00:54:51;;;;;;;2.88;2.53;;;;;;;20.03;30.23;100335.41;5004121;28;96855;-72
2021/05/11 00:57:18;;;;;;;3.85;2.85;;;;;;;19.99;30.43;100326.47;5004352;28;96825;-72
2021/05/11 00:59:47;;;;;;;3.38;3.08;;;;;;;19.95;30.23;100334.72;5006101;28;98986;-72
2021/05/11 01:02:15;;;;;;;4.15;2.60;;;;;;;19.91;30.27;100332.97;5006265;28;99001;-72
2021/05/11 01:04:42;;;;;;;4.15;3.20;;;;;;;19.89;30.17;100335.72;5004775;28;96971;-72
2021/05/11 01:07:10;;;;;;;5.03;2.90;;;;;;;19.85;30.34;100331.31;5004214;28;97286;-71
2021/05/11 01:09:37;;;;;;;2.28;2.15;;;;;;;19.84;30.22;100332.25;5005304;28;99178;-71
2021/05/11 01:12:06;;;;;;;4.93;2.63;;;;;;;19.86;30.64;100338.47;5004280;28;97784;-71
2021/05/11 01:14:33;;;;;;;3.88;2.55;;;;;;;19.79;30.72;100344.94;5003176;28;97732;-71
2021/05/11 01:17:02;;;;;;;3.53;2.75;;;;;;;19.77;30.40;100338.69;5004754;28;97336;-71
2021/05/11 01:19:40;;;;;;;3.03;2.72;;;;;;;19.75;30.57;100331.56;5003417;28;97874;-72
2021/05/11 01:22:31;;;;;;;3.85;2.70;;;;;;;19.69;30.69;100321.81;5002964;28;101055;-71
2021/05/11 01:25:01;;;;;;;6.35;2.65;;;;;;;19.64;30.30;100315.63;5003022;28;97111;-71
2021/05/11 01:30:33;;;;;;;4.03;3.33;;;;;;;19.58;30.55;100306.75;5000855;28;97977;-71
2021/05/11 01:43:48;;;;;;;5.57;2.58;;;;;;;19.53;30.90;100293.41;5004766;28;98993;-71
2021/05/11 01:47:20;;;;;;;3.17;2.92;;;;;;;19.43;30.35;100297.22;4999201;28;97268;-71
2021/05/11 01:50:02;;;;;;;2.92;2.25;;;;;;;19.40;30.55;100296.41;5001647;28;97073;-72
2021/05/11 01:55:43;;;;;;;3.10;2.03;;;;;;;19.35;30.86;100284.81;4993735;28;101161;-72
2021/05/11 02:23:03;;;;;;;3.08;2.80;;;;;;;19.11;30.67;100244.88;4980733;28;96909;-72
2021/05/11 02:25:30;;;;;;;2.45;2.30;;;;;;;19.09;30.76;100252.09;4991450;28;101879;-72
2021/05/11 02:27:58;;;;;;;3.90;2.58;;;;;;;19.07;30.84;100237.75;5003111;28;99085;-72
2021/05/11 02:30:25;;;;;;;3.58;2.80;;;;;;;19.02;30.60;100227.09;5003623;28;97369;-73
2021/05/11 02:32:52;;;;;;;4.00;2.47;;;;;;;19.00;30.88;100213.66;5004285;28;96853;-73
2021/05/11 02:35:20;;;;;;;2.55;2.35;;;;;;;18.99;30.86;100203.78;5002226;28;98554;-73
2021/05/11 02:37:47;;;;;;;3.50;2.75;;;;;;;18.95;31.00;100201.19;5003424;28;99029;-72
2021/05/11 02:40:16;;;;;;;3.90;2.55;;;;;;;18.95;30.88;100182.31;5003482;28;96789;-72
2021/05/11 02:42:45;;;;;;;3.55;2.53;;;;;;;18.95;30.66;100211.97;5002039;28;96906;-71
2021/05/11 02:45:15;;;;;;;4.60;2.75;;;;;;;18.92;30.98;100222.81;5003276;28;97827;-72
2021/05/11 02:47:49;;;;;;;3.40;2.60;;;;;;;18.91;30.86;100226.44;5003835;28;97648;-72
2021/05/11 02:50:17;;;;;;;5.18;3.17;;;;;;;18.89;30.95;100233.69;5003119;28;97303;-73
2021/05/11 02:52:46;;;;;;;3.00;2.67;;;;;;;18.86;31.07;100237.31;5004054;28;97499;-74
2021/05/11 02:55:14;;;;;;;2.78;2.58;;;;;;;18.85;30.95;100230.16;5003129;28;97838;-73
2021/05/11 02:57:41;;;;;;;3.00;2.85;;;;;;;18.82;31.14;100224.81;5003328;28;97808;-73
2021/05/11 03:00:10;;;;;;;2.97;2.65;;;;;;;18.82;31.13;100223.94;5002147;28;97492;-73
2021/05/11 03:02:38;;;;;;;3.80;3.00;;;;;;;18.77;31.07;100220.44;5003814;28;96968;-72
2021/05/11 03:05:07;;;;;;;4.20;2.78;;;;;;;18.77;30.94;100209.66;5004233;28;99295;-72
2021/05/11 03:07:34;;;;;;;4.35;2.63;;;;;;;18.75;31.06;100200.75;5001641;28;97758;-72
2021/05/11 03:10:03;;;;;;;2.95;2.75;;;;;;;18.69;31.19;100188.28;5004184;28;97808;-73
2021/05/11 03:12:30;;;;;;;2.95;2.53;;;;;;;18.67;31.11;100200.88;5003945;28;97980;-73
2021/05/11 03:14:57;;;;;;;3.58;3.17;;;;;;;18.65;31.21;100194.63;5003443;28;98280;-73
2021/05/11 03:17:26;;;;;;;2.65;2.38;;;;;;;18.61;31.13;100194.69;5000787;28;97558;-73
2021/05/11 03:19:54;;;;;;;2.85;2.70;;;;;;;18.63;31.23;100190.16;5001719;28;96871;-73
2021/05/11 03:22:21;;;;;;;2.90;2.80;;;;;;;18.61;31.28;100189.31;5003366;28;97093;-73
2021/05/11 03:24:48;;;;;;;4.25;2.92;;;;;;;18.57;31.12;100183.09;5000974;28;97721;-73
2021/05/11 03:27:17;;;;;;;3.13;2.92;;;;;;;18.56;31.26;100184.03;5001728;28;98329;-73
2021/05/11 03:29:45;;;;;;;2.92;2.72;;;;;;;18.54;31.38;100171.50;5004080;28;98831;-72
2021/05/11 03:32:12;;;;;;;2.72;2.58;;;;;;;18.53;31.20;100185.91;5001576;28;96914;-73
2021/05/11 03:34:40;;;;;;;3.42;2.78;;;;;;;18.53;31.17;100180.53;5003790;28;98142;-73
2021/05/11 03:37:08;;;;;;;3.67;2.92;;;;;;;18.50;31.40;100185.94;5001493;28;99062;-73
2021/05/11 03:39:38;;;;;;;2.72;2.63;;;;;;;18.49;31.31;100190.47;5003577;28;97113;-72
2021/05/11 03:42:10;;;;;;;2.88;2.70;;;;;;;18.50;31.25;100197.63;5001144;28;97087;-72
2021/05/11 03:44:41;;;;;;;3.83;3.20;;;;;;;18.45;31.19;100209.41;5002258;28;99032;-72
2021/05/11 03:47:08;;;;;;;3.03;2.83;;;;;;;18.43;31.31;100213.94;5002658;28;97830;-72
2021/05/11 03:49:38;;;;;;;2.70;2.60;;;;;;;18.45;31.46;100212.13;5003345;28;97504;-72
2021/05/11 03:52:08;;;;;;;3.20;2.80;;;;;;;18.42;31.36;100215.75;5001963;28;97284;-72
2021/05/11 03:54:36;;;;;;;2.60;2.50;;;;;;;18.41;31.39;100216.69;5006008;28;100156;-72
2021/05/11 03:57:04;;;;;;;2.90;2.70;;;;;;;18.40;31.51;100217.59;5006632;28;99053;-72
2021/05/11 03:59:32;;;;;;;3.45;2.78;;;;;;;18.42;31.28;100231.03;5006128;28;97021;-73
2021/05/11 04:02:00;;;;;;;7.63;6.03;;;;;;;18.39;31.27;100228.38;5003253;28;97182;-73
2021/05/11 04:04:28;;;;;;;44.85;23.27;;;;;;;18.46;31.28;100227.38;5004809;28;98119;-72
2021/05/11 04:06:56;;;;;;;9.48;7.07;;;;;;;18.41;31.32;100221.16;5002788;28;98748;-72
2021/05/11 04:09:28;;;;;;;2.70;2.60;;;;;;;18.40;31.40;100211.31;5002935;28;96849;-72
2021/05/11 04:17:33;;;;;;;2.83;2.30;;;;;;;18.35;31.33;100224.00;5003236;28;98170;-71
2021/05/11 04:20:01;;;;;;;7.38;6.65;;;;;;;18.34;31.36;100222.22;5002967;28;98713;-72
2021/05/11 04:22:28;;;;;;;21.33;12.23;;;;;;;18.35;31.28;100234.78;5009968;28;97314;-71
2021/05/11 04:24:58;;;;;;;7.88;4.10;;;;;;;18.36;31.44;100233.84;5007175;28;98427;-71
2021/05/11 04:27:25;;;;;;;3.00;2.70;;;;;;;18.33;31.41;100242.00;5004844;28;99390;-72
2021/05/11 04:29:59;;;;;;;2.60;2.40;;;;;;;18.33;31.53;100242.00;5006183;28;96787;-72
2021/05/11 04:32:27;;;;;;;2.72;2.50;;;;;;;18.29;31.47;100248.34;5005229;28;97470;-72
2021/05/11 04:34:55;;;;;;;2.50;2.40;;;;;;;18.23;31.37;100245.75;5003062;28;97887;-72
2021/05/11 04:37:23;;;;;;;2.53;2.33;;;;;;;18.17;31.45;100243.22;5004917;28;97328;-72
2021/05/11 04:39:51;;;;;;;3.17;2.58;;;;;;;18.16;31.54;100219.88;5004920;28;97127;-71
2021/05/11 04:42:21;;;;;;;2.47;2.33;;;;;;;18.15;31.43;100215.41;5006122;28;97667;-71
2021/05/11 04:44:49;;;;;;;21.13;11.65;;;;;;;18.14;31.44;100197.47;5005149;28;99134;-72
2021/05/11 04:47:19;;;;;;;15.25;10.18;;;;;;;18.16;31.58;100190.25;5006646;28;97620;-72
2021/05/11 04:49:48;;;;;;;5.55;3.30;;;;;;;18.17;31.08;100189.34;5006788;28;97064;-73
2021/05/11 04:52:15;;;;;;;2.53;2.35;;;;;;;18.19;31.47;100183.00;5004354;28;97475;-72
2021/05/11 04:54:42;;;;;;;2.75;2.50;;;;;;;18.22;31.29;100179.38;5005182;28;97863;-71
2021/05/11 04:57:10;;;;;;;2.30;2.20;;;;;;;18.22;31.24;100179.38;5003970;28;97119;-72
2021/05/11 04:59:39;;;;;;;28.08;14.30;;;;;;;18.22;31.24;100169.50;5002470;28;97332;-72
2021/05/11 05:02:07;;;;;;;7.57;4.93;;;;;;;18.24;31.33;100169.47;4998787;28;97384;-70
2021/05/11 05:04:37;;;;;;;2.60;2.45;;;;;;;18.26;31.25;100194.56;4999110;28;97360;-71
2021/05/11 05:07:05;;;;;;;7.18;5.95;;;;;;;18.26;31.29;100202.63;5002272;28;97886;-72
2021/05/11 05:09:33;;;;;;;3.85;3.47;;;;;;;18.26;31.09;100205.34;5001040;28;96979;-72
2021/05/11 05:12:01;;;;;;;2.75;2.63;;;;;;;18.28;31.05;100198.06;5004717;28;97009;-71
2021/05/11 05:14:29;;;;;;;4.15;2.50;;;;;;;18.28;31.00;100190.91;5002497;28;97918;-71
2021/05/11 05:16:58;;;;;;;3.20;2.50;;;;;;;18.31;31.03;100198.03;5002402;28;98894;-70
2021/05/11 05:19:26;;;;;;;31.63;17.73;;;;;;;18.31;30.99;100198.03;5001794;28;97488;-71
2021/05/11 05:21:53;;;;;;;20.17;11.10;;;;;;;18.34;31.02;100195.28;5002905;28;97202;-71
2021/05/11 05:24:25;;;;;;;4.78;3.22;;;;;;;18.36;30.95;100193.44;5003412;28;99035;-71
2021/05/11 05:26:55;;;;;;;3.05;2.90;;;;;;;18.38;31.03;100191.59;5000219;28;99631;-71
2021/05/11 05:29:23;;;;;;;3.38;2.47;;;;;;;18.41;31.10;100186.13;5002606;28;97207;-70
2021/05/11 05:31:50;;;;;;;2.72;2.53;;;;;;;18.40;31.01;100182.59;5003342;28;96897;-71
2021/05/11 05:34:19;;;;;;;3.63;2.40;;;;;;;18.39;30.94;100182.59;4999743;28;99106;-71
2021/05/11 05:36:47;;;;;;;2.40;2.30;;;;;;;18.38;30.97;100186.22;5001157;28;98922;-71
2021/05/11 05:39:16;;;;;;;3.08;2.85;;;;;;;18.38;30.96;100170.94;5001672;28;96944;-70
2021/05/11 05:41:44;;;;;;;2.90;2.50;;;;;;;18.36;30.94;100174.59;5003010;28;96904;-72
2021/05/11 05:44:12;;;;;;;4.53;2.88;;;;;;;18.36;31.11;100177.28;5000738;28;97809;-70
2021/05/11 05:46:40;;;;;;;6.25;5.65;;;;;;;18.32;31.04;100175.56;5001679;28;98220;-71
2021/05/11 05:49:09;;;;;;;38.92;21.95;;;;;;;18.36;31.28;100167.41;5001681;27;96879;-71
2021/05/11 05:51:37;;;;;;;5.18;4.30;;;;;;;18.35;30.86;100164.75;5004095;28;97192;-71
2021/05/11 05:54:06;;;;;;;3.25;2.97;;;;;;;18.32;31.18;100162.97;5001639;28;99289;-71
2021/05/11 05:56:34;;;;;;;2.83;2.63;;;;;;;18.31;31.13;100163.03;5001002;28;98897;-72
2021/05/11 05:59:01;;;;;;;4.07;3.10;;;;;;;18.30;31.04;100156.75;5002462;28;97786;-71
2021/05/11 06:01:34;;;;;;;2.90;2.70;;;;;;;18.34;31.12;100157.56;5003713;28;97045;-72
2021/05/11 06:04:07;;;;;;;2.80;2.65;;;;;;;18.35;30.96;100170.13;5001497;28;98845;-71
2021/05/11 06:06:34;;;;;;;5.53;2.92;;;;;;;18.34;31.22;100173.72;5000544;28;99207;-71
2021/05/11 06:09:06;;;;;;;3.47;3.25;;;;;;;18.33;31.18;100178.22;5000136;28;98497;-70
2021/05/11 06:11:41;;;;;;;4.30;2.75;;;;;;;18.30;31.07;100172.00;4999781;28;96847;-71
2021/05/11 06:14:15;;;;;;;3.10;2.90;;;;;;;18.30;31.28;100193.56;4997354;28;98483;-72
2021/05/11 06:19:29;;;;;;;4.15;3.60;;;;;;;18.20;31.62;100208.13;4997210;28;96793;-71
2021/05/11 06:21:57;;;;;;;3.63;3.00;;;;;;;18.16;31.41;100220.78;4998766;28;97638;-71
2021/05/11 06:24:26;;;;;;;2.92;2.72;;;;;;;18.08;31.73;100224.50;4996675;28;97814;-71
2021/05/11 06:26:54;;;;;;;3.00;2.80;;;;;;;18.01;31.71;100219.22;4998263;28;98857;-71
2021/05/11 06:29:24;;;;;;;3.72;3.53;;;;;;;17.99;31.64;100221.03;4999883;28;97236;-72
2021/05/11 06:31:52;;;;;;;3.33;3.13;;;;;;;17.98;31.90;100224.63;5000164;28;97131;-70
2021/05/11 06:34:20;;;;;;;75.07;40.08;;;;;;;17.99;31.61;100212.97;5000520;28;99082;-71
2021/05/11 06:36:48;;;;;;;10.50;7.28;;;;;;;17.95;31.89;100213.03;5003366;28;99012;-71
2021/05/11 06:39:17;;;;;;;3.60;3.28;;;;;;;17.95;31.85;100213.94;5001051;28;97874;-71
2021/05/11 06:41:48;;;;;;;3.90;3.20;;;;;;;17.99;31.87;100191.44;5003339;28;96729;-71
2021/05/11 06:44:25;;;;;;;4.43;3.00;;;;;;;18.04;31.54;100170.72;5002231;28;97160;-71
2021/05/11 06:49:59;;;;;;;3.15;2.95;;;;;;;18.17;31.59;100170.50;5003238;28;96931;-71
2021/05/11 06:52:53;;;;;;;3.40;3.10;;;;;;;18.20;31.54;100170.44;5002797;28;97356;-72
2021/05/11 06:55:21;;;;;;;3.63;3.13;;;;;;;18.25;31.51;100163.13;5002821;28;99080;-72
2021/05/11 06:57:50;;;;;;;3.05;2.85;;;;;;;18.33;31.34;100163.88;5002099;28;97781;-71
2021/05/11 07:00:19;;;;;;;3.30;3.10;;;;;;;18.35;31.54;100162.03;5000909;28;97372;-71
2021/05/11 07:02:47;;;;;;;3.25;2.95;;;;;;;18.38;31.45;100164.66;5001679;28;98056;-71
2021/05/11 07:05:15;;;;;;;7.75;5.38;;;;;;;18.40;31.38;100171.81;4996606;28;97919;-71
2021/05/11 07:07:44;;;;;;;16.67;11.88;;;;;;;18.38;31.56;100152.09;4999753;28;98813;-72
2021/05/11 07:10:25;;;;;;;5.20;4.13;;;;;;;18.41;31.51;100153.81;4997529;28;97818;-70
2021/05/11 07:13:11;;;;;;;3.70;3.13;;;;;;;18.43;31.41;100168.16;4999149;28;97073;-71
2021/05/11 07:15:42;;;;;;;4.07;3.30;;;;;;;18.42;31.40;100171.78;4998392;28;97846;-71
2021/05/11 07:18:12;;;;;;;4.28;3.30;;;;;;;18.41;31.35;100165.50;4998619;28;97475;-71
2021/05/11 07:20:41;;;;;;;3.60;3.30;;;;;;;18.37;31.50;100163.75;4998698;28;97029;-70
2021/05/11 07:23:09;;;;;;;3.55;3.10;;;;;;;18.36;31.56;100155.72;5000669;28;96812;-71
2021/05/11 07:25:43;;;;;;;3.53;3.13;;;;;;;18.31;31.68;100155.84;5002262;28;98685;-71
2021/05/11 07:28:35;;;;;;;58.22;32.55;;;;;;;18.32;31.83;100175.56;5003064;28;99036;-71
2021/05/11 07:31:06;;;;;;;9.02;5.50;;;;;;;18.31;31.75;100177.38;5000348;28;97302;-72
2021/05/11 07:33:37;;;;;;;4.55;3.10;;;;;;;18.34;31.48;100179.09;5002249;28;97518;-72
2021/05/11 07:36:06;;;;;;;3.85;3.55;;;;;;;18.36;31.55;100188.06;5000333;28;99213;-70
2021/05/11 07:38:34;;;;;;;4.07;3.60;;;;;;;18.36;31.66;100206.91;4998377;28;96943;-72
2021/05/11 07:41:03;;;;;;;4.65;3.75;;;;;;;18.37;31.54;100203.31;5000232;28;97426;-71
2021/05/11 07:43:33;;;;;;;6.05;5.50;;;;;;;18.43;31.43;100193.28;4999513;28;97109;-71
2021/05/11 07:46:32;;;;;;;12.18;6.30;;;;;;;18.51;31.48;100182.34;5001551;28;99089;-71
2021/05/11 08:03:32;;;;;;;26.42;15.90;;;;;;;18.97;30.97;100173.25;5006099;28;97990;-70
2021/05/11 08:14:37;;;;;;;4.15;3.78;;;;;;;19.02;30.91;100198.28;4997751;28;96723;-71
2021/05/11 08:17:06;;;;;;;6.22;3.88;;;;;;;19.05;30.91;100189.25;4997391;28;98086;-71
2021/05/11 08:19:57;;;;;;;9.45;7.28;;;;;;;19.12;31.10;100176.50;4999938;28;99040;-71
2021/05/11 08:28:11;;;;;;;7.50;5.53;;;;;;;19.24;30.88;100165.44;4951863;28;99212;-71
2021/05/11 08:30:39;;;;;;;9.32;6.93;;;;;;;19.26;30.80;100164.50;4992956;28;99283;-71
2021/05/11 08:33:07;;;;;;;5.40;4.80;;;;;;;19.33;30.46;100152.66;5011911;28;98593;-71
2021/05/11 08:35:35;;;;;;;3.83;3.53;;;;;;;19.32;30.67;100141.88;5007162;28;97636;-71
2021/05/11 08:38:04;;;;;;;4.20;4.00;;;;;;;19.29;31.19;100140.13;5000073;28;97219;-72
2021/05/11 08:40:32;;;;;;;5.18;4.68;;;;;;;19.31;30.80;100134.72;5001141;28;99052;-71
2021/05/11 08:43:02;;;;;;;50.63;33.25;;;;;;;19.34;31.04;100129.25;5003287;28;97831;-72
2021/05/11 08:45:30;;;;;;;12.45;8.18;;;;;;;19.38;31.06;100137.25;5005554;28;96930;-72
2021/05/11 08:47:59;;;;;;;4.93;4.53;;;;;;;19.44;30.96;100136.19;5000233;28;96964;-72
2021/05/11 08:50:32;;;;;;;6.22;4.30;;;;;;;19.49;30.63;100132.44;5003724;28;100812;-71
2021/05/11 08:53:25;;;;;;;4.20;3.90;;;;;;;19.54;30.59;100135.91;5005793;28;98103;-71
2021/05/11 09:07:32;;;;;;;4.82;4.38;;;;;;;19.98;30.36;100114.03;4998193;28;97758;-73
2021/05/11 09:27:13;;;;;;;9.75;5.30;;;;;;;20.01;30.52;100098.69;4999507;28;96902;-72
2021/05/11 09:29:46;;;;;;;8.98;6.05;;;;;;;20.05;29.94;100103.94;5003337;28;97364;-71
2021/05/11 09:32:33;;;;;;;24.17;15.30;;;;;;;20.11;29.85;100108.28;5001588;28;96888;-72
2021/05/11 09:44:51;;;;;;;7.65;6.30;;;;;;;20.18;30.02;100099.06;5003767;28;97902;-71
2021/05/11 09:56:14;;;;;;;9.73;7.60;;;;;;;21.03;28.91;100084.72;5004847;28;97536;-71
2021/05/11 10:11:27;;;;;;;7.07;5.78;;;;;;;21.51;28.77;100083.09;4941088;28;98523;-71
2021/05/11 10:48:40;;;;;;;5.35;5.00;;;;;;;22.18;28.63;100045.47;5001336;28;97772;-69
2021/05/11 10:51:19;;;;;;;6.38;4.10;;;;;;;22.14;28.70;100052.81;5001411;28;97247;-68
2021/05/11 10:54:00;;;;;;;12.73;9.98;;;;;;;22.24;28.39;100054.22;5001791;28;96802;-70
2021/05/11 10:56:51;;;;;;;8.48;7.57;;;;;;;22.40;28.86;100066.28;5002111;28;98123;-69
2021/05/11 10:59:28;;;;;;;9.35;5.90;;;;;;;22.47;28.21;100065.13;5000706;28;98940;-70
2021/05/11 11:02:01;;;;;;;6.68;4.97;;;;;;;22.55;27.86;100067.50;4997369;28;97778;-68
2021/05/11 11:04:32;;;;;;;7.53;4.80;;;;;;;22.62;27.91;100079.91;5002377;28;96904;-69
2021/05/11 11:07:04;;;;;;;9.32;5.85;;;;;;;22.64;27.89;100076.16;5001550;28;97291;-70
2021/05/11 11:09:33;;;;;;;5.60;5.00;;;;;;;22.67;27.77;100070.63;4999391;28;97878;-70
2021/05/11 11:12:03;;;;;;;6.15;5.35;;;;;;;22.75;27.83;100068.47;4999623;28;98001;-68
2021/05/11 11:14:39;;;;;;;5.28;4.88;;;;;;;22.81;28.08;100065.56;4994769;28;97746;-68
2021/05/11 11:17:09;;;;;;;5.00;4.47;;;;;;;22.96;27.73;100071.31;5002645;28;97862;-68
2021/05/11 11:19:38;;;;;;;7.18;5.20;;;;;;;23.09;27.50;100087.03;4999256;28;97824;-69
2021/05/11 11:24:53;;;;;;;10.18;6.13;;;;;;;22.87;27.75;100097.00;5001639;28;96930;-68
2021/05/11 11:27:25;;;;;;;7.15;5.97;;;;;;;22.89;27.76;100100.53;5003172;28;98427;-68
2021/05/11 11:30:01;;;;;;;7.55;6.85;;;;;;;22.85;27.96;100090.75;5002455;28;97798;-69
2021/05/11 11:32:30;;;;;;;4.60;4.30;;;;;;;22.87;27.80;100099.69;4999762;28;97855;-68
2021/05/11 11:34:59;;;;;;;6.00;5.50;;;;;;;22.87;27.94;100097.00;5001652;28;97253;-69
2021/05/11 11:37:28;;;;;;;6.85;5.13;;;;;;;22.87;27.84;100102.41;5002081;28;98396;-69
2021/05/11 11:39:59;;;;;;;12.63;9.30;;;;;;;22.85;28.04;100093.44;4997972;28;97018;-69
2021/05/11 11:42:29;;;;;;;6.82;6.18;;;;;;;22.81;28.04;100092.69;5007827;28;97911;-70
2021/05/11 11:44:59;;;;;;;6.03;5.50;;;;;;;22.72;28.20;100087.59;5002883;28;96831;-69
2021/05/11 11:47:28;;;;;;;6.60;6.00;;;;;;;22.66;28.27;100086.94;5003010;28;97625;-70
2021/05/11 11:49:59;;;;;;;6.18;5.60;;;;;;;22.55;28.38;100075.63;5000086;28;97415;-68
2021/05/11 11:52:32;;;;;;;8.25;6.03;;;;;;;22.51;28.60;100082.16;5001650;28;96864;-68
2021/05/11 11:55:27;;;;;;;6.03;5.47;;;;;;;22.51;28.49;100074.00;5003909;28;96822;-69
2021/05/11 11:57:55;;;;;;;5.63;5.20;;;;;;;22.48;28.55;100065.97;5000223;28;98101;-69
2021/05/11 12:00:24;;;;;;;6.47;5.88;;;;;;;22.58;28.58;100080.97;4999636;28;98997;-68
2021/05/11 12:02:53;;;;;;;7.47;5.45;;;;;;;22.62;28.50;100088.91;5000465;28;98226;-69
2021/05/11 12:05:22;;;;;;;5.30;4.90;;;;;;;22.75;28.18;100087.47;5000192;28;97454;-69
2021/05/11 12:07:59;;;;;;;7.03;6.40;;;;;;;22.83;28.40;100081.78;5001240;28;99000;-70
2021/05/11 12:10:28;;;;;;;6.70;6.03;;;;;;;22.81;28.24;100068.28;5000367;28;98046;-69
2021/05/11 12:12:57;;;;;;;7.85;7.15;;;;;;;22.85;28.21;100061.78;5000377;28;97723;-69
2021/05/11 12:15:25;;;;;;;8.85;7.53;;;;;;;22.99;27.91;100063.03;5003277;28;97438;-69
2021/05/11 12:17:59;;;;;;;6.20;5.68;;;;;;;23.02;28.15;100054.78;5001225;28;98351;-69
2021/05/11 12:20:27;;;;;;;7.03;5.53;;;;;;;23.13;27.86;100050.66;5003734;28;97550;-69
2021/05/11 12:23:14;;;;;;;6.38;5.70;;;;;;;23.37;27.85;100043.34;5005364;28;97253;-69
2021/05/11 12:25:43;;;;;;;9.50;7.03;;;;;;;23.50;27.50;100040.00;5003195;28;97481;-69
2021/05/11 12:28:21;;;;;;;6.25;5.68;;;;;;;23.55;27.37;100039.81;5002637;28;98420;-70
2021/05/11 12:30:53;;;;;;;5.97;5.40;;;;;;;23.63;27.20;100033.09;4999020;28;97037;-70
2021/05/11 12:33:31;;;;;;;7.55;6.47;;;;;;;23.75;27.39;100029.81;5000752;28;98279;-69
2021/05/11 12:36:14;;;;;;;8.55;7.70;;;;;;;23.91;27.24;100021.00;5000155;28;96826;-69
2021/05/11 12:38:43;;;;;;;8.18;6.72;;;;;;;24.16;26.61;100029.78;5001941;28;98028;-68
2021/05/11 12:41:30;;;;;;;6.43;5.82;;;;;;;24.41;26.60;100028.56;5002872;28;98330;-68
2021/05/11 12:43:59;;;;;;;13.60;11.85;;;;;;;24.72;26.01;100026.16;5004256;28;97791;-67
2021/05/11 12:46:29;;;;;;;9.02;8.13;;;;;;;25.06;26.11;100019.97;5001264;28;97702;-67
2021/05/11 12:49:00;;;;;;;7.13;6.30;;;;;;;25.42;25.79;100039.84;4999810;28;97988;-67
2021/05/11 12:51:37;;;;;;;7.47;6.63;;;;;;;25.71;25.14;100060.16;4997436;28;99061;-67
2021/05/11 12:54:27;;;;;;;6.85;6.20;;;;;;;25.82;25.06;100054.13;5003915;28;97428;-67
2021/05/11 12:59:51;;;;;;;6.40;5.70;;;;;;;25.61;25.41;100062.47;4998270;28;99488;-67
2021/05/11 13:02:39;;;;;;;5.65;5.07;;;;;;;25.38;25.89;100067.31;4997728;28;98911;-69
2021/05/11 13:16:54;;;;;;;5.72;5.22;;;;;;;24.07;26.82;100090.03;4988726;28;97858;-68
2021/05/11 13:22:29;;;;;;;6.05;5.55;;;;;;;23.75;27.26;100094.16;4997508;28;99050;-68
2021/05/11 13:25:15;;;;;;;7.57;6.55;;;;;;;23.56;27.42;100099.50;4997310;28;97607;-67
2021/05/11 13:27:51;;;;;;;7.28;6.55;;;;;;;23.40;27.82;100097.53;5000436;28;97221;-67
2021/05/11 13:30:33;;;;;;;7.95;7.15;;;;;;;23.58;27.46;100085.84;4999608;28;97851;-67
2021/05/11 13:33:13;;;;;;;7.13;6.43;;;;;;;23.69;27.27;100083.56;4999256;28;97007;-68
2021/05/11 13:35:41;;;;;;;7.72;6.72;;;;;;;23.71;26.97;100085.28;4997007;28;98655;-68
2021/05/11 13:38:09;;;;;;;7.10;6.60;;;;;;;23.65;27.25;100080.09;4999566;28;97761;-67
2021/05/11 13:40:37;;;;;;;7.45;6.82;;;;;;;23.53;27.35;100069.75;4997446;28;97352;-68
2021/05/11 13:43:05;;;;;;;8.68;6.38;;;;;;;23.59;27.24;100069.50;4996610;28;99229;-68
2021/05/11 13:45:33;;;;;;;7.38;6.20;;;;;;;24.07;27.09;100071.00;4997658;28;98156;-68
2021/05/11 13:48:03;;;;;;;6.10;5.60;;;;;;;24.65;26.28;100073.66;4997924;28;97560;-67
2021/05/11 13:50:45;;;;;;;7.05;6.55;;;;;;;25.12;25.80;100068.63;4998915;28;97139;-68
2021/05/11 13:53:13;;;;;;;6.45;5.68;;;;;;;25.53;25.46;100063.84;4998228;28;99224;-68
2021/05/11 13:55:50;;;;;;;8.13;6.32;;;;;;;25.92;24.85;100058.13;4998821;28;99417;-67
2021/05/11 14:03:54;;;;;;;7.65;6.88;;;;;;;25.91;24.98;100070.00;5002670;28;97454;-68
2021/05/11 14:06:22;;;;;;;13.20;11.20;;;;;;;25.70;25.38;100070.16;5000778;28;96997;-69
2021/05/11 14:08:49;;;;;;;10.00;9.05;;;;;;;25.51;24.98;100061.19;4998002;28;97030;-68
2021/05/11 14:11:17;;;;;;;8.73;7.57;;;;;;;25.56;25.19;100071.84;5000173;28;97623;-69
2021/05/11 14:13:46;;;;;;;7.20;6.57;;;;;;;25.57;24.92;100070.91;5001037;28;99049;-69
2021/05/11 14:16:14;;;;;;;7.00;6.40;;;;;;;25.43;25.20;100060.66;4999699;28;98690;-70
2021/05/11 14:18:42;;;;;;;6.90;5.97;;;;;;;25.31;25.12;100064.03;4999782;28;97630;-70
2021/05/11 14:21:10;;;;;;;9.18;7.53;;;;;;;25.24;25.46;100061.69;5000750;28;97429;-69
2021/05/11 14:23:38;;;;;;;6.95;6.30;;;;;;;25.15;25.24;100060.34;4999501;28;96992;-68
2021/05/11 14:26:06;;;;;;;8.73;6.40;;;;;;;25.05;25.49;100060.88;4999771;28;97975;-71
2021/05/11 14:28:34;;;;;;;7.32;6.72;;;;;;;24.94;25.92;100069.56;4999840;28;97818;-70
2021/05/11 14:31:02;;;;;;;6.80;6.20;;;;;;;24.99;25.44;100078.41;5002024;28;96887;-70
2021/05/11 14:33:31;;;;;;;8.20;7.00;;;;;;;25.03;25.81;100073.69;4997234;28;97716;-69
2021/05/11 14:35:59;;;;;;;8.27;7.57;;;;;;;24.86;26.07;100063.59;4995143;28;99784;-70
2021/05/11 14:38:27;;;;;;;8.05;7.35;;;;;;;24.65;25.62;100051.91;4998951;28;97503;-70
2021/05/11 14:41:01;;;;;;;8.25;7.43;;;;;;;24.39;26.39;100057.66;5000960;28;97829;-69
2021/05/11 14:43:29;;;;;;;7.70;7.00;;;;;;;24.26;26.32;100066.50;4999302;28;97676;-69
2021/05/11 14:45:58;;;;;;;8.63;7.18;;;;;;;24.15;26.53;100058.84;5001936;28;97858;-69
2021/05/11 14:48:29;;;;;;;7.35;6.75;;;;;;;23.92;27.03;100041.78;5000282;28;97822;-70
2021/05/11 14:50:57;;;;;;;7.47;6.57;;;;;;;23.62;27.13;100046.75;4999713;28;96900;-69
2021/05/11 14:53:25;;;;;;;6.72;6.10;;;;;;;23.41;27.31;100043.13;5000275;28;102055;-70
2021/05/11 14:55:53;;;;;;;7.55;6.78;;;;;;;23.26;27.66;100046.47;5001164;28;98960;-70
2021/05/11 14:58:32;;;;;;;7.40;6.25;;;;;;;23.08;27.88;100041.81;5000607;28;97239;-69
2021/05/11 15:01:00;;;;;;;7.25;6.55;;;;;;;22.91;28.11;100049.81;4998158;28;97891;-69
2021/05/11 15:03:29;;;;;;;7.07;5.63;;;;;;;22.73;28.16;100047.78;5000372;28;99148;-70